sensor_id;sensor_type;location;lat;lon;timestamp;pressure;altitude;pressure_sealevel;temperature;humidity
85948;BME280;76517;53.854;27.442;2024-02-23T00:01:58;97354.19;;;19.47;33.66
85948;BME280;76517;53.854;27.442;2024-02-23T00:04:24;97343.88;;;19.37;33.80
85948;BME280;76517;53.854;27.442;2024-02-23T00:06:49;97326.31;;;19.23;34.19
85948;BME280;76517;53.854;27.442;2024-02-23T00:09:15;97322.47;;;19.34;34.06
85948;BME280;76517;53.854;27.442;2024-02-23T00:11:41;97337.19;;;19.43;34.03
85948;BME280;76517;53.854;27.442;2024-02-23T00:14:10;97321.69;;;19.25;33.94
85948;BME280;76517;53.854;27.442;2024-02-23T00:16:39;97328.97;;;19.38;33.95
85948;BME280;76517;53.854;27.442;2024-02-23T00:19:08;97331.75;;;19.36;34.17
85948;BME280;76517;53.854;27.442;2024-02-23T00:21:34;97309.88;;;19.29;34.33
85948;BME280;76517;53.854;27.442;2024-02-23T00:24:00;97316.88;;;19.37;33.99
85948;BME280;76517;53.854;27.442;2024-02-23T00:26:26;97340.75;;;19.42;34.06
85948;BME280;76517;53.854;27.442;2024-02-23T00:28:53;97329.97;;;19.37;34.05
85948;BME280;76517;53.854;27.442;2024-02-23T00:31:18;97300.22;;;19.30;34.10
85948;BME280;76517;53.854;27.442;2024-02-23T00:33:44;97320.56;;;19.50;34.01
85948;BME280;76517;53.854;27.442;2024-02-23T00:36:09;97325.97;;;19.49;33.72
85948;BME280;76517;53.854;27.442;2024-02-23T00:38:34;97325.38;;;19.39;34.00
85948;BME280;76517;53.854;27.442;2024-02-23T00:41:00;97314.97;;;19.31;34.21
85948;BME280;76517;53.854;27.442;2024-02-23T00:43:25;97311.69;;;19.29;34.24
85948;BME280;76517;53.854;27.442;2024-02-23T00:45:51;97319.38;;;19.30;34.32
85948;BME280;76517;53.854;27.442;2024-02-23T00:48:16;97315.59;;;19.33;34.09
85948;BME280;76517;53.854;27.442;2024-02-23T00:50:42;97307.72;;;19.33;34.03
85948;BME280;76517;53.854;27.442;2024-02-23T00:53:08;97323.38;;;19.41;33.92
85948;BME280;76517;53.854;27.442;2024-02-23T00:55:33;97320.59;;;19.42;33.91
85948;BME280;76517;53.854;27.442;2024-02-23T00:57:58;97324.41;;;19.40;33.95
85948;BME280;76517;53.854;27.442;2024-02-23T01:00:24;97322.75;;;19.39;34.09
85948;BME280;76517;53.854;27.442;2024-02-23T01:02:49;97303.16;;;19.35;34.03
85948;BME280;76517;53.854;27.442;2024-02-23T01:05:15;97303.16;;;19.35;33.89
85948;BME280;76517;53.854;27.442;2024-02-23T01:07:40;97293.72;;;19.26;33.93
85948;BME280;76517;53.854;27.442;2024-02-23T01:10:06;97318.50;;;19.38;34.22
85948;BME280;76517;53.854;27.442;2024-02-23T01:12:31;97330.63;;;19.39;34.06
85948;BME280;76517;53.854;27.442;2024-02-23T01:14:57;97297.66;;;19.21;34.07
85948;BME280;76517;53.854;27.442;2024-02-23T01:17:22;97321.47;;;19.43;34.02
85948;BME280;76517;53.854;27.442;2024-02-23T01:19:48;97292.41;;;19.21;33.90
85948;BME280;76517;53.854;27.442;2024-02-23T01:22:14;97295.00;;;19.30;33.95
85948;BME280;76517;53.854;27.442;2024-02-23T01:24:40;97328.44;;;19.50;33.80
85948;BME280;76517;53.854;27.442;2024-02-23T01:27:05;97337.50;;;19.40;33.75
85948;BME280;76517;53.854;27.442;2024-02-23T01:29:30;97294.75;;;19.16;34.03
85948;BME280;76517;53.854;27.442;2024-02-23T01:31:56;97305.81;;;19.27;33.86
85948;BME280;76517;53.854;27.442;2024-02-23T01:34:22;97322.00;;;19.30;33.93
85948;BME280;76517;53.854;27.442;2024-02-23T01:36:47;97338.84;;;19.36;33.86
85948;BME280;76517;53.854;27.442;2024-02-23T01:39:13;97328.44;;;19.19;34.28
85948;BME280;76517;53.854;27.442;2024-02-23T01:41:38;97303.25;;;19.18;33.96
85948;BME280;76517;53.854;27.442;2024-02-23T01:44:04;97292.94;;;19.17;34.17
85948;BME280;76517;53.854;27.442;2024-02-23T01:46:30;97313.97;;;19.32;33.92
85948;BME280;76517;53.854;27.442;2024-02-23T01:48:56;97318.03;;;19.34;34.10
85948;BME280;76517;53.854;27.442;2024-02-23T01:51:22;97298.00;;;19.18;33.92
85948;BME280;76517;53.854;27.442;2024-02-23T01:53:48;97307.63;;;19.49;33.71
85948;BME280;76517;53.854;27.442;2024-02-23T01:56:14;97304.28;;;19.32;33.74
85948;BME280;76517;53.854;27.442;2024-02-23T01:58:43;97310.47;;;19.39;33.80
85948;BME280;76517;53.854;27.442;2024-02-23T02:01:12;97299.81;;;19.41;33.61
85948;BME280;76517;53.854;27.442;2024-02-23T02:03:40;97301.94;;;19.45;33.75
85948;BME280;76517;53.854;27.442;2024-02-23T02:06:06;97283.16;;;19.34;33.82
85948;BME280;76517;53.854;27.442;2024-02-23T02:08:33;97274.31;;;19.35;33.67
85948;BME280;76517;53.854;27.442;2024-02-23T02:10:59;97296.38;;;19.40;33.87
85948;BME280;76517;53.854;27.442;2024-02-23T02:13:25;97292.53;;;19.28;34.14
85948;BME280;76517;53.854;27.442;2024-02-23T02:15:50;97267.41;;;19.19;34.37
85948;BME280;76517;53.854;27.442;2024-02-23T02:18:16;97264.38;;;19.30;33.70
85948;BME280;76517;53.854;27.442;2024-02-23T02:20:51;97262.72;;;19.29;33.64
85948;BME280;76517;53.854;27.442;2024-02-23T02:23:18;97297.13;;;19.57;33.54
85948;BME280;76517;53.854;27.442;2024-02-23T02:25:43;97260.41;;;19.34;33.65
85948;BME280;76517;53.854;27.442;2024-02-23T02:28:09;97261.59;;;19.32;33.66
85948;BME280;76517;53.854;27.442;2024-02-23T02:30:34;97268.91;;;19.36;33.97
85948;BME280;76517;53.854;27.442;2024-02-23T02:33:00;97275.41;;;19.48;33.56
85948;BME280;76517;53.854;27.442;2024-02-23T02:35:25;97216.53;;;19.13;33.88
85948;BME280;76517;53.854;27.442;2024-02-23T02:37:51;97250.75;;;19.35;33.23
85948;BME280;76517;53.854;27.442;2024-02-23T02:40:16;97241.03;;;19.20;33.61
85948;BME280;76517;53.854;27.442;2024-02-23T02:42:41;97242.13;;;19.26;33.79
85948;BME280;76517;53.854;27.442;2024-02-23T02:45:07;97238.81;;;19.32;33.78
85948;BME280;76517;53.854;27.442;2024-02-23T02:47:33;97264.50;;;19.59;33.25
85948;BME280;76517;53.854;27.442;2024-02-23T02:49:58;97267.75;;;19.39;33.62
85948;BME280;76517;53.854;27.442;2024-02-23T02:52:24;97245.97;;;19.38;33.36
85948;BME280;76517;53.854;27.442;2024-02-23T02:54:50;97248.44;;;19.40;33.36
85948;BME280;76517;53.854;27.442;2024-02-23T02:57:15;97262.88;;;19.36;33.79
85948;BME280;76517;53.854;27.442;2024-02-23T02:59:41;97262.06;;;19.35;33.59
85948;BME280;76517;53.854;27.442;2024-02-23T03:02:07;97265.28;;;19.37;33.69
85948;BME280;76517;53.854;27.442;2024-02-23T03:04:32;97242.25;;;19.10;33.61
85948;BME280;76517;53.854;27.442;2024-02-23T03:06:58;97276.34;;;19.24;33.97
85948;BME280;76517;53.854;27.442;2024-02-23T03:09:23;97245.81;;;19.17;33.63
85948;BME280;76517;53.854;27.442;2024-02-23T03:11:48;97256.69;;;19.29;33.55
85948;BME280;76517;53.854;27.442;2024-02-23T03:14:14;97273.50;;;19.34;33.51
85948;BME280;76517;53.854;27.442;2024-02-23T03:16:39;97264.16;;;19.40;33.36
85948;BME280;76517;53.854;27.442;2024-02-23T03:19:05;97254.44;;;19.40;33.36
85948;BME280;76517;53.854;27.442;2024-02-23T03:21:32;97268.53;;;19.47;33.49
85948;BME280;76517;53.854;27.442;2024-02-23T03:23:58;97268.22;;;19.42;33.57
85948;BME280;76517;53.854;27.442;2024-02-23T03:26:23;97258.25;;;19.38;33.79
85948;BME280;76517;53.854;27.442;2024-02-23T03:28:49;97248.34;;;19.25;33.86
85948;BME280;76517;53.854;27.442;2024-02-23T03:31:14;97241.69;;;19.22;33.60
85948;BME280;76517;53.854;27.442;2024-02-23T03:33:40;97280.16;;;19.45;33.37
85948;BME280;76517;53.854;27.442;2024-02-23T03:36:05;97262.50;;;19.39;33.69
85948;BME280;76517;53.854;27.442;2024-02-23T03:38:31;97257.41;;;19.22;33.67
85948;BME280;76517;53.854;27.442;2024-02-23T03:40:56;97274.28;;;19.43;33.54
85948;BME280;76517;53.854;27.442;2024-02-23T03:43:22;97248.19;;;19.27;33.53
85948;BME280;76517;53.854;27.442;2024-02-23T03:45:47;97270.00;;;19.42;33.27
85948;BME280;76517;53.854;27.442;2024-02-23T03:48:13;97251.44;;;19.29;33.74
85948;BME280;76517;53.854;27.442;2024-02-23T03:50:38;97228.13;;;19.19;33.65
85948;BME280;76517;53.854;27.442;2024-02-23T03:53:04;97245.88;;;19.32;33.23
85948;BME280;76517;53.854;27.442;2024-02-23T03:55:29;97252.66;;;19.41;33.55
85948;BME280;76517;53.854;27.442;2024-02-23T03:57:55;97243.59;;;19.29;33.84
85948;BME280;76517;53.854;27.442;2024-02-23T04:00:20;97248.28;;;19.33;33.61
85948;BME280;76517;53.854;27.442;2024-02-23T04:02:48;97232.22;;;19.36;33.43
85948;BME280;76517;53.854;27.442;2024-02-23T04:05:14;97251.22;;;19.38;33.43
85948;BME280;76517;53.854;27.442;2024-02-23T04:07:39;97217.50;;;19.12;33.67
85948;BME280;76517;53.854;27.442;2024-02-23T04:10:05;97242.84;;;19.43;33.10
85948;BME280;76517;53.854;27.442;2024-02-23T04:12:31;97239.91;;;19.38;33.46
85948;BME280;76517;53.854;27.442;2024-02-23T04:14:56;97193.59;;;19.15;33.60
85948;BME280;76517;53.854;27.442;2024-02-23T04:17:22;97218.03;;;19.31;33.57
85948;BME280;76517;53.854;27.442;2024-02-23T04:19:47;97207.91;;;19.28;33.52
85948;BME280;76517;53.854;27.442;2024-02-23T04:22:13;97206.34;;;19.18;33.52
85948;BME280;76517;53.854;27.442;2024-02-23T04:24:39;97216.31;;;19.23;33.89
85948;BME280;76517;53.854;27.442;2024-02-23T04:27:08;97235.94;;;19.42;33.77
85948;BME280;76517;53.854;27.442;2024-02-23T04:29:33;97217.59;;;19.27;33.64
85948;BME280;76517;53.854;27.442;2024-02-23T04:32:00;97243.50;;;19.37;33.67
85948;BME280;76517;53.854;27.442;2024-02-23T04:34:25;97255.28;;;19.41;33.53
85948;BME280;76517;53.854;27.442;2024-02-23T04:36:51;97226.22;;;19.28;33.56
85948;BME280;76517;53.854;27.442;2024-02-23T04:39:16;97237.75;;;19.41;33.53
85948;BME280;76517;53.854;27.442;2024-02-23T04:41:42;97201.50;;;19.07;33.70
85948;BME280;76517;53.854;27.442;2024-02-23T04:44:07;97221.66;;;19.30;33.68
85948;BME280;76517;53.854;27.442;2024-02-23T04:46:32;97232.22;;;19.36;33.51
85948;BME280;76517;53.854;27.442;2024-02-23T04:48:59;97202.47;;;19.14;33.68
85948;BME280;76517;53.854;27.442;2024-02-23T04:51:25;97225.47;;;19.42;33.39
85948;BME280;76517;53.854;27.442;2024-02-23T04:53:50;97206.16;;;19.20;33.93
85948;BME280;76517;53.854;27.442;2024-02-23T04:56:16;97225.47;;;19.42;33.41
85948;BME280;76517;53.854;27.442;2024-02-23T04:58:42;97226.28;;;19.19;33.81
85948;BME280;76517;53.854;27.442;2024-02-23T05:01:08;97219.72;;;19.23;33.71
85948;BME280;76517;53.854;27.442;2024-02-23T05:03:34;97198.88;;;19.07;33.64
85948;BME280;76517;53.854;27.442;2024-02-23T05:05:59;97228.84;;;19.28;33.69
85948;BME280;76517;53.854;27.442;2024-02-23T05:08:25;97239.47;;;19.34;33.69
85948;BME280;76517;53.854;27.442;2024-02-23T05:10:52;97211.16;;;19.30;33.82
85948;BME280;76517;53.854;27.442;2024-02-23T05:13:18;97235.94;;;19.42;33.57
85948;BME280;76517;53.854;27.442;2024-02-23T05:15:43;97243.47;;;19.45;33.29
85948;BME280;76517;53.854;27.442;2024-02-23T05:18:09;97242.38;;;19.39;33.60
85948;BME280;76517;53.854;27.442;2024-02-23T05:20:34;97244.34;;;19.37;33.60
85948;BME280;76517;53.854;27.442;2024-02-23T05:23:00;97248.09;;;19.43;33.46
85948;BME280;76517;53.854;27.442;2024-02-23T05:25:26;97233.22;;;19.35;33.39
85948;BME280;76517;53.854;27.442;2024-02-23T05:27:52;97250.00;;;19.49;33.40
85948;BME280;76517;53.854;27.442;2024-02-23T05:30:17;97249.13;;;19.34;33.61
85948;BME280;76517;53.854;27.442;2024-02-23T05:32:43;97214.44;;;19.09;33.86
85948;BME280;76517;53.854;27.442;2024-02-23T05:35:09;97255.28;;;19.41;33.61
85948;BME280;76517;53.854;27.442;2024-02-23T05:37:37;97251.75;;;19.34;33.94
85948;BME280;76517;53.854;27.442;2024-02-23T05:40:03;97233.53;;;19.17;33.82
85948;BME280;76517;53.854;27.442;2024-02-23T05:42:41;97262.47;;;19.47;33.59
85948;BME280;76517;53.854;27.442;2024-02-23T05:45:08;97258.09;;;19.39;33.93
85948;BME280;76517;53.854;27.442;2024-02-23T05:47:39;97217.22;;;19.07;33.85
85948;BME280;76517;53.854;27.442;2024-02-23T05:50:05;97250.47;;;19.30;34.13
85948;BME280;76517;53.854;27.442;2024-02-23T05:52:32;97239.59;;;19.18;33.80
85948;BME280;76517;53.854;27.442;2024-02-23T05:54:58;97268.22;;;19.42;33.87
85948;BME280;76517;53.854;27.442;2024-02-23T05:57:27;97275.31;;;19.34;34.04
85948;BME280;76517;53.854;27.442;2024-02-23T05:59:53;97265.81;;;19.33;34.05
85948;BME280;76517;53.854;27.442;2024-02-23T06:02:18;97270.50;;;19.22;34.18
85948;BME280;76517;53.854;27.442;2024-02-23T06:04:46;97245.84;;;19.09;34.12
85948;BME280;76517;53.854;27.442;2024-02-23T06:07:11;97274.03;;;19.30;34.34
85948;BME280;76517;53.854;27.442;2024-02-23T06:09:37;97279.03;;;19.39;33.99
85948;BME280;76517;53.854;27.442;2024-02-23T06:12:02;97253.19;;;19.13;34.24
85948;BME280;76517;53.854;27.442;2024-02-23T06:14:28;97271.50;;;19.36;33.99
85948;BME280;76517;53.854;27.442;2024-02-23T06:16:54;97281.22;;;19.36;34.00
85948;BME280;76517;53.854;27.442;2024-02-23T06:19:19;97276.66;;;19.30;34.10
85948;BME280;76517;53.854;27.442;2024-02-23T06:21:48;97278.63;;;19.28;34.23
85948;BME280;76517;53.854;27.442;2024-02-23T06:24:14;97286.47;;;19.28;34.25
85948;BME280;76517;53.854;27.442;2024-02-23T06:26:40;97284.88;;;19.27;34.39
85948;BME280;76517;53.854;27.442;2024-02-23T06:29:05;97278.59;;;19.36;34.01
85948;BME280;76517;53.854;27.442;2024-02-23T06:31:31;97292.13;;;19.47;33.93
85948;BME280;76517;53.854;27.442;2024-02-23T06:33:59;97297.19;;;19.41;34.08
85948;BME280;76517;53.854;27.442;2024-02-23T06:36:25;97284.41;;;19.46;34.00
85948;BME280;76517;53.854;27.442;2024-02-23T06:38:51;97279.88;;;19.40;33.87
85948;BME280;76517;53.854;27.442;2024-02-23T06:41:17;97264.38;;;19.30;34.06
85948;BME280;76517;53.854;27.442;2024-02-23T06:43:43;97263.56;;;19.30;33.65
85948;BME280;76517;53.854;27.442;2024-02-23T06:46:09;97290.94;;;19.50;33.93
85948;BME280;76517;53.854;27.442;2024-02-23T06:48:38;97274.13;;;19.44;33.84
85948;BME280;76517;53.854;27.442;2024-02-23T06:51:04;97291.41;;;19.53;33.98
85948;BME280;76517;53.854;27.442;2024-02-23T06:53:30;97284.44;;;19.38;34.01
85948;BME280;76517;53.854;27.442;2024-02-23T06:55:56;97303.06;;;19.51;33.89
85948;BME280;76517;53.854;27.442;2024-02-23T06:58:21;97303.16;;;19.35;34.30
85948;BME280;76517;53.854;27.442;2024-02-23T07:00:47;97301.63;;;19.40;34.37
85948;BME280;76517;53.854;27.442;2024-02-23T07:03:13;97262.44;;;19.24;33.95
85948;BME280;76517;53.854;27.442;2024-02-23T07:05:40;97285.72;;;19.42;33.71
85948;BME280;76517;53.854;27.442;2024-02-23T07:08:07;97314.34;;;19.51;33.79
85948;BME280;76517;53.854;27.442;2024-02-23T07:10:33;97298.25;;;19.32;34.09
85948;BME280;76517;53.854;27.442;2024-02-23T07:12:58;97303.06;;;19.51;33.75
85948;BME280;76517;53.854;27.442;2024-02-23T07:15:24;97320.72;;;19.57;33.87
85948;BME280;76517;53.854;27.442;2024-02-23T07:17:55;97273.00;;;19.39;33.88
85948;BME280;76517;53.854;27.442;2024-02-23T07:20:22;97300.44;;;19.51;33.77
85948;BME280;76517;53.854;27.442;2024-02-23T07:22:47;97314.97;;;19.53;33.91
85948;BME280;76517;53.854;27.442;2024-02-23T07:25:17;97325.28;;;19.55;34.08
85948;BME280;76517;53.854;27.442;2024-02-23T07:27:45;97299.19;;;19.39;33.81
85948;BME280;76517;53.854;27.442;2024-02-23T07:30:11;97287.06;;;19.38;33.74
85948;BME280;76517;53.854;27.442;2024-02-23T07:32:37;97324.38;;;19.48;33.74
85948;BME280;76517;53.854;27.442;2024-02-23T07:35:03;97305.00;;;19.26;34.02
85948;BME280;76517;53.854;27.442;2024-02-23T07:37:29;97303.38;;;19.25;34.11
85948;BME280;76517;53.854;27.442;2024-02-23T07:39:55;97338.56;;;19.53;34.16
85948;BME280;76517;53.854;27.442;2024-02-23T07:42:20;97332.69;;;19.51;33.88
85948;BME280;76517;53.854;27.442;2024-02-23T07:44:46;97347.53;;;19.59;33.74
85948;BME280;76517;53.854;27.442;2024-02-23T07:47:12;97358.03;;;19.59;33.98
85948;BME280;76517;53.854;27.442;2024-02-23T07:49:38;97340.41;;;19.45;34.25
85948;BME280;76517;53.854;27.442;2024-02-23T07:52:06;97311.31;;;19.40;33.80
85948;BME280;76517;53.854;27.442;2024-02-23T07:54:32;97339.50;;;19.60;33.63
85948;BME280;76517;53.854;27.442;2024-02-23T07:56:57;97344.16;;;19.50;34.04
85948;BME280;76517;53.854;27.442;2024-02-23T07:59:23;97343.59;;;19.63;33.83
85948;BME280;76517;53.854;27.442;2024-02-23T08:01:48;97363.91;;;19.61;33.99
85948;BME280;76517;53.854;27.442;2024-02-23T08:04:14;97335.84;;;19.47;33.91
85948;BME280;76517;53.854;27.442;2024-02-23T08:06:39;97353.91;;;19.64;33.61
85948;BME280;76517;53.854;27.442;2024-02-23T08:09:05;97362.22;;;19.68;33.57
85948;BME280;76517;53.854;27.442;2024-02-23T08:11:30;97334.16;;;19.54;33.79
85948;BME280;76517;53.854;27.442;2024-02-23T08:13:55;97357.91;;;19.75;33.77
85948;BME280;76517;53.854;27.442;2024-02-23T08:16:21;97350.69;;;19.77;33.21
85948;BME280;76517;53.854;27.442;2024-02-23T08:18:46;97333.47;;;19.60;33.79
85948;BME280;76517;53.854;27.442;2024-02-23T08:21:12;97350.41;;;19.72;33.67
85948;BME280;76517;53.854;27.442;2024-02-23T08:23:38;97358.19;;;19.80;33.37
85948;BME280;76517;53.854;27.442;2024-02-23T08:26:03;97371.59;;;19.85;33.45
85948;BME280;76517;53.854;27.442;2024-02-23T08:28:28;97363.75;;;19.85;33.25
85948;BME280;76517;53.854;27.442;2024-02-23T08:30:54;97364.34;;;19.87;33.57
85948;BME280;76517;53.854;27.442;2024-02-23T08:33:19;97330.25;;;19.73;33.18
85948;BME280;76517;53.854;27.442;2024-02-23T08:35:45;97356.84;;;19.84;33.39
85948;BME280;76517;53.854;27.442;2024-02-23T08:38:11;97359.13;;;19.87;33.21
85948;BME280;76517;53.854;27.442;2024-02-23T08:40:36;97370.25;;;19.89;33.48
85948;BME280;76517;53.854;27.442;2024-02-23T08:43:02;97372.59;;;19.84;33.52
85948;BME280;76517;53.854;27.442;2024-02-23T08:45:28;97345.78;;;19.74;33.37
85948;BME280;76517;53.854;27.442;2024-02-23T08:47:53;97367.69;;;19.81;33.43
85948;BME280;76517;53.854;27.442;2024-02-23T08:50:19;97334.16;;;19.54;33.86
85948;BME280;76517;53.854;27.442;2024-02-23T08:52:44;97355.56;;;19.80;33.49
85948;BME280;76517;53.854;27.442;2024-02-23T08:55:10;97347.53;;;19.59;33.49
85948;BME280;76517;53.854;27.442;2024-02-23T08:57:36;97370.03;;;19.76;33.44
85948;BME280;76517;53.854;27.442;2024-02-23T09:00:03;97368.38;;;19.75;33.45
85948;BME280;76517;53.854;27.442;2024-02-23T09:02:30;97359.91;;;19.73;33.66
85948;BME280;76517;53.854;27.442;2024-02-23T09:04:56;97365.13;;;19.73;33.62
85948;BME280;76517;53.854;27.442;2024-02-23T09:07:23;97373.47;;;19.77;33.34
85948;BME280;76517;53.854;27.442;2024-02-23T09:09:49;97364.44;;;19.79;33.45
85948;BME280;76517;53.854;27.442;2024-02-23T09:12:15;97357.09;;;19.75;33.44
85948;BME280;76517;53.854;27.442;2024-02-23T09:14:42;97378.50;;;19.78;33.59
85948;BME280;76517;53.854;27.442;2024-02-23T09:17:09;97341.53;;;19.50;33.61
85948;BME280;76517;53.854;27.442;2024-02-23T09:19:36;97366.75;;;19.74;33.29
85948;BME280;76517;53.854;27.442;2024-02-23T09:22:02;97372.28;;;19.79;33.49
85948;BME280;76517;53.854;27.442;2024-02-23T09:24:29;97368.69;;;19.80;33.56
85948;BME280;76517;53.854;27.442;2024-02-23T09:26:54;97367.75;;;19.73;33.48
85948;BME280;76517;53.854;27.442;2024-02-23T09:29:19;97373.56;;;19.83;33.38
85948;BME280;76517;53.854;27.442;2024-02-23T09:31:47;97358.50;;;19.85;33.39
85948;BME280;76517;53.854;27.442;2024-02-23T09:34:12;97344.50;;;19.70;33.26
85948;BME280;76517;53.854;27.442;2024-02-23T09:36:38;97349.69;;;19.78;33.27
85948;BME280;76517;53.854;27.442;2024-02-23T09:39:04;97383.75;;;20.01;33.29
85948;BME280;76517;53.854;27.442;2024-02-23T09:41:30;97364.13;;;19.74;33.24
85948;BME280;76517;53.854;27.442;2024-02-23T09:43:58;97356.03;;;19.84;33.20
85948;BME280;76517;53.854;27.442;2024-02-23T09:46:25;97335.88;;;19.84;32.91
85948;BME280;76517;53.854;27.442;2024-02-23T09:48:51;97342.31;;;19.82;33.28
85948;BME280;76517;53.854;27.442;2024-02-23T09:51:17;97359.41;;;19.92;33.05
85948;BME280;76517;53.854;27.442;2024-02-23T09:53:43;97386.03;;;20.04;33.19
85948;BME280;76517;53.854;27.442;2024-02-23T09:56:09;97378.06;;;19.97;33.03
85948;BME280;76517;53.854;27.442;2024-02-23T09:58:39;97379.69;;;19.98;33.10
85948;BME280;76517;53.854;27.442;2024-02-23T10:01:05;97390.50;;;19.95;33.33
85948;BME280;76517;53.854;27.442;2024-02-23T10:03:30;97396.94;;;19.93;33.34
85948;BME280;76517;53.854;27.442;2024-02-23T10:05:59;97377.31;;;19.89;33.51
85948;BME280;76517;53.854;27.442;2024-02-23T10:08:29;97370.06;;;19.91;33.26
85948;BME280;76517;53.854;27.442;2024-02-23T10:10:55;97355.69;;;19.87;32.89
85948;BME280;76517;53.854;27.442;2024-02-23T10:13:24;97379.69;;;19.98;32.89
85948;BME280;76517;53.854;27.442;2024-02-23T10:15:50;97380.31;;;20.00;32.98
85948;BME280;76517;53.854;27.442;2024-02-23T10:18:19;97347.22;;;19.99;32.88
85948;BME280;76517;53.854;27.442;2024-02-23T10:20:46;97337.53;;;19.85;33.00
85948;BME280;76517;53.854;27.442;2024-02-23T10:23:12;97361.28;;;20.06;32.84
85948;BME280;76517;53.854;27.442;2024-02-23T10:25:38;97375.75;;;20.17;32.62
85948;BME280;76517;53.854;27.442;2024-02-23T10:28:06;97379.44;;;20.31;32.72
85948;BME280;76517;53.854;27.442;2024-02-23T10:30:31;97364.97;;;20.35;32.54
85948;BME280;76517;53.854;27.442;2024-02-23T10:32:57;97359.63;;;20.43;32.16
85948;BME280;76517;53.854;27.442;2024-02-23T10:35:24;97376.56;;;20.55;32.26
85948;BME280;76517;53.854;27.442;2024-02-23T10:37:51;97381.56;;;20.65;32.05
85948;BME280;76517;53.854;27.442;2024-02-23T10:40:20;97366.34;;;20.60;31.82
85948;BME280;76517;53.854;27.442;2024-02-23T10:42:48;97386.44;;;20.68;32.15
85948;BME280;76517;53.854;27.442;2024-02-23T10:45:20;97374.66;;;20.64;32.03
85948;BME280;76517;53.854;27.442;2024-02-23T10:47:50;97362.00;;;20.67;31.85
85948;BME280;76517;53.854;27.442;2024-02-23T10:50:17;97379.50;;;20.75;32.04
85948;BME280;76517;53.854;27.442;2024-02-23T10:52:44;97359.75;;;20.64;32.11
85948;BME280;76517;53.854;27.442;2024-02-23T10:55:11;97368.59;;;20.63;31.73
85948;BME280;76517;53.854;27.442;2024-02-23T10:57:36;97375.78;;;20.69;31.94
85948;BME280;76517;53.854;27.442;2024-02-23T11:00:03;97382.66;;;20.70;32.02
85948;BME280;76517;53.854;27.442;2024-02-23T11:02:38;97346.72;;;20.56;31.88
85948;BME280;76517;53.854;27.442;2024-02-23T11:05:06;97388.72;;;20.85;31.85
85948;BME280;76517;53.854;27.442;2024-02-23T11:07:38;97375.13;;;20.82;31.75
85948;BME280;76517;53.854;27.442;2024-02-23T11:10:04;97370.59;;;20.90;31.51
85948;BME280;76517;53.854;27.442;2024-02-23T11:12:30;97372.97;;;21.00;31.32
85948;BME280;76517;53.854;27.442;2024-02-23T11:14:59;97382.53;;;21.08;31.31
85948;BME280;76517;53.854;27.442;2024-02-23T11:17:32;97355.28;;;20.94;31.38
85948;BME280;76517;53.854;27.442;2024-02-23T11:19:58;97395.22;;;21.19;31.22
85948;BME280;76517;53.854;27.442;2024-02-23T11:22:33;97397.38;;;21.30;31.50
85948;BME280;76517;53.854;27.442;2024-02-23T11:25:04;97403.00;;;21.27;31.11
85948;BME280;76517;53.854;27.442;2024-02-23T11:27:31;97391.41;;;21.21;31.08
85948;BME280;76517;53.854;27.442;2024-02-23T11:30:04;97396.94;;;21.26;31.06
85948;BME280;76517;53.854;27.442;2024-02-23T11:32:42;97407.09;;;21.29;31.34
85948;BME280;76517;53.854;27.442;2024-02-23T11:35:10;97357.75;;;20.95;31.52
85948;BME280;76517;53.854;27.442;2024-02-23T11:37:55;97394.84;;;21.22;31.53
85948;BME280;76517;53.854;27.442;2024-02-23T11:40:29;97373.13;;;20.98;31.51
85948;BME280;76517;53.854;27.442;2024-02-23T11:42:55;97412.88;;;21.10;31.67
85948;BME280;76517;53.854;27.442;2024-02-23T11:45:21;97390.53;;;20.99;31.78
85948;BME280;76517;53.854;27.442;2024-02-23T11:47:47;97395.16;;;21.12;31.58
85948;BME280;76517;53.854;27.442;2024-02-23T11:50:13;97407.38;;;21.20;31.46
85948;BME280;76517;53.854;27.442;2024-02-23T11:52:40;97418.59;;;21.28;31.33
85948;BME280;76517;53.854;27.442;2024-02-23T11:55:06;97423.31;;;21.33;31.44
85948;BME280;76517;53.854;27.442;2024-02-23T11:57:34;97418.66;;;21.35;31.23
85948;BME280;76517;53.854;27.442;2024-02-23T12:00:01;97400.13;;;21.22;31.45
85948;BME280;76517;53.854;27.442;2024-02-23T12:02:27;97416.97;;;21.27;31.41
85948;BME280;76517;53.854;27.442;2024-02-23T12:04:53;97386.97;;;21.07;31.56
85948;BME280;76517;53.854;27.442;2024-02-23T12:07:18;97424.41;;;21.24;31.81
85948;BME280;76517;53.854;27.442;2024-02-23T12:09:45;97401.13;;;21.21;31.96
85948;BME280;76517;53.854;27.442;2024-02-23T12:12:10;97431.75;;;21.28;31.74
85948;BME280;76517;53.854;27.442;2024-02-23T12:14:36;97423.13;;;21.20;31.84
85948;BME280;76517;53.854;27.442;2024-02-23T12:17:02;97425.13;;;21.18;32.17
85948;BME280;76517;53.854;27.442;2024-02-23T12:19:29;97411.88;;;20.96;32.12
85948;BME280;76517;53.854;27.442;2024-02-23T12:22:00;97444.50;;;21.02;32.27
85948;BME280;76517;53.854;27.442;2024-02-23T12:24:26;97430.09;;;20.98;32.41
85948;BME280;76517;53.854;27.442;2024-02-23T12:26:56;97409.16;;;20.75;32.48
85948;BME280;76517;53.854;27.442;2024-02-23T12:29:23;97419.50;;;20.77;32.69
85948;BME280;76517;53.854;27.442;2024-02-23T12:31:48;97407.09;;;20.71;32.84
85948;BME280;76517;53.854;27.442;2024-02-23T12:34:14;97426.19;;;20.79;32.77
85948;BME280;76517;53.854;27.442;2024-02-23T12:36:39;97435.91;;;20.79;32.89
85948;BME280;76517;53.854;27.442;2024-02-23T12:39:05;97417.66;;;20.63;32.99
85948;BME280;76517;53.854;27.442;2024-02-23T12:41:32;97436.59;;;20.73;32.58
85948;BME280;76517;53.854;27.442;2024-02-23T12:43:58;97442.75;;;20.80;32.87
85948;BME280;76517;53.854;27.442;2024-02-23T12:46:24;97437.78;;;20.70;32.91